createdAt,value
2022-12-16T00:01:31.473Z,25.50
2022-12-16T00:04:00.788Z,28.17
2022-12-16T00:06:33.736Z,28.90
2022-12-16T00:09:03.985Z,27.70
2022-12-16T00:11:33.382Z,30.70
2022-12-16T00:14:02.857Z,29.43
2022-12-16T00:16:32.389Z,30.37
2022-12-16T00:19:01.839Z,29.57
2022-12-16T00:21:31.202Z,29.43
2022-12-16T00:24:00.829Z,30.03
2022-12-16T00:26:30.765Z,32.17
2022-12-16T00:29:00.685Z,30.30
2022-12-16T00:31:30.035Z,30.47
2022-12-16T00:33:59.838Z,32.03
2022-12-16T00:36:29.233Z,30.30
2022-12-16T00:38:58.475Z,30.27
2022-12-16T00:41:28.064Z,31.37
2022-12-16T00:43:57.337Z,30.73
2022-12-16T00:46:26.750Z,30.07
2022-12-16T00:48:56.259Z,30.47
2022-12-16T00:51:25.746Z,33.47
2022-12-16T00:53:55.254Z,34.50
2022-12-16T00:56:25.040Z,35.00
2022-12-16T00:58:54.234Z,33.97
2022-12-16T01:01:24.416Z,34.83
2022-12-16T01:03:57.822Z,36.10
2022-12-16T01:06:27.560Z,34.70
2022-12-16T01:08:57.529Z,35.00
2022-12-16T01:11:26.790Z,36.30
2022-12-16T01:13:56.272Z,36.30
2022-12-16T01:16:25.698Z,35.83
2022-12-16T01:18:55.870Z,39.30
2022-12-16T01:21:25.279Z,34.53
2022-12-16T01:23:55.029Z,33.90
2022-12-16T01:26:25.090Z,32.67
2022-12-16T01:28:55.195Z,30.57
2022-12-16T01:31:25.217Z,28.47
2022-12-16T01:33:54.730Z,31.37
2022-12-16T01:36:26.102Z,31.40
2022-12-16T01:38:55.657Z,30.20
2022-12-16T01:41:25.032Z,31.90
2022-12-16T01:44:08.494Z,29.67
2022-12-16T01:46:38.592Z,31.07
2022-12-16T01:49:16.839Z,31.83
2022-12-16T01:51:52.585Z,33.00
2022-12-16T01:54:29.924Z,33.80
2022-12-16T01:57:02.952Z,32.33
2022-12-16T01:59:35.172Z,31.17
2022-12-16T02:02:05.366Z,32.70
2022-12-16T02:04:34.979Z,32.50
2022-12-16T02:07:04.273Z,33.05
2022-12-16T02:09:33.562Z,35.30
2022-12-16T02:12:18.622Z,33.13
2022-12-16T02:15:10.188Z,32.60
2022-12-16T02:17:51.063Z,29.40
2022-12-16T02:20:48.354Z,28.77
2022-12-16T02:23:50.976Z,27.57
2022-12-16T02:26:47.376Z,28.60
2022-12-16T02:29:49.327Z,27.97
2022-12-16T02:32:24.666Z,26.07
2022-12-16T02:34:59.527Z,27.03
2022-12-16T02:37:38.495Z,26.05
2022-12-16T02:40:17.186Z,24.90
2022-12-16T02:42:51.345Z,24.83
2022-12-16T02:45:26.910Z,25.63
2022-12-16T02:47:56.734Z,23.53
2022-12-16T02:50:30.571Z,24.07
2022-12-16T02:53:01.871Z,24.93
2022-12-16T02:55:41.812Z,24.37
2022-12-16T02:58:22.101Z,26.43
2022-12-16T03:01:01.558Z,25.57
2022-12-16T03:03:40.327Z,26.13
2022-12-16T03:06:13.226Z,24.67
2022-12-16T03:08:49.888Z,24.60
2022-12-16T03:11:20.426Z,24.70
2022-12-16T03:13:53.146Z,24.23
2022-12-16T03:16:27.302Z,25.03
2022-12-16T03:19:01.801Z,25.53
2022-12-16T03:21:37.327Z,24.17
2022-12-16T03:24:10.753Z,26.03
2022-12-16T03:26:44.733Z,25.30
2022-12-16T03:29:19.351Z,27.23
2022-12-16T03:31:55.234Z,24.83
2022-12-16T03:34:32.670Z,25.03
2022-12-16T03:37:05.428Z,24.07
2022-12-16T03:39:39.487Z,23.13
2022-12-16T03:42:10.258Z,24.87
2022-12-16T03:44:40.090Z,24.83
2022-12-16T03:47:10.586Z,25.83
2022-12-16T03:49:40.717Z,23.50
2022-12-16T03:52:10.077Z,26.07
2022-12-16T03:54:39.527Z,25.10
2022-12-16T03:57:14.734Z,25.03
2022-12-16T03:59:44.980Z,27.57
2022-12-16T04:02:14.498Z,25.13
2022-12-16T04:04:44.143Z,25.73
2022-12-16T04:07:24.011Z,25.47
2022-12-16T04:09:53.988Z,25.60
2022-12-16T04:12:41.727Z,24.93
2022-12-16T04:15:32.714Z,24.60
2022-12-16T04:18:20.797Z,25.70
2022-12-16T04:21:13.981Z,24.60
2022-12-16T04:24:07.046Z,23.70
2022-12-16T04:26:56.710Z,21.90
2022-12-16T04:29:26.044Z,23.63
2022-12-16T04:31:56.026Z,23.03
2022-12-16T04:34:25.656Z,23.13
2022-12-16T04:37:14.799Z,23.67
2022-12-16T04:40:02.968Z,22.67
2022-12-16T04:42:51.592Z,23.83
2022-12-16T04:45:35.653Z,23.10
2022-12-16T04:48:23.692Z,24.40
2022-12-16T04:51:11.301Z,21.20
2022-12-16T04:53:58.967Z,20.33
2022-12-16T04:56:46.546Z,22.87
2022-12-16T04:59:34.345Z,23.10
2022-12-16T05:02:21.934Z,19.90
2022-12-16T05:05:10.065Z,20.47
2022-12-16T05:07:57.603Z,18.87
2022-12-16T05:10:45.108Z,19.40
2022-12-16T05:13:32.890Z,22.20
2022-12-16T05:16:18.772Z,19.83
2022-12-16T05:19:02.855Z,18.67
2022-12-16T05:21:50.705Z,19.33
2022-12-16T05:24:38.129Z,19.50
2022-12-16T05:27:25.698Z,19.27
2022-12-16T05:30:13.310Z,22.30
2022-12-16T05:33:06.657Z,18.30
2022-12-16T05:35:54.135Z,17.50
2022-12-16T05:38:41.828Z,14.57
2022-12-16T05:41:29.267Z,15.57
2022-12-16T05:44:17.000Z,16.87
2022-12-16T05:47:04.631Z,15.90
2022-12-16T05:49:52.350Z,15.40
2022-12-16T05:52:39.983Z,15.95
2022-12-16T05:55:33.708Z,14.23
2022-12-16T05:58:21.665Z,16.30
2022-12-16T06:01:09.539Z,16.03
2022-12-16T06:03:57.113Z,15.37
2022-12-16T06:06:44.893Z,17.23
2022-12-16T06:09:44.158Z,16.45
2022-12-16T06:12:31.692Z,16.87
2022-12-16T06:15:30.720Z,15.00
2022-12-16T06:18:18.581Z,13.73
2022-12-16T06:21:05.982Z,15.23
2022-12-16T06:24:05.312Z,16.00
2022-12-16T06:26:51.023Z,14.70
2022-12-16T06:29:38.649Z,17.17
2022-12-16T06:32:26.480Z,15.93
2022-12-16T06:35:14.687Z,15.03
2022-12-16T06:38:06.830Z,15.20
2022-12-16T06:40:55.131Z,14.40
2022-12-16T06:43:43.596Z,14.73
2022-12-16T06:46:32.427Z,14.47
2022-12-16T06:49:20.625Z,13.70
2022-12-16T06:52:08.155Z,13.50
2022-12-16T06:54:55.681Z,14.20
2022-12-16T06:57:43.047Z,13.23
2022-12-16T07:00:32.632Z,13.10
2022-12-16T07:03:21.279Z,14.40
2022-12-16T07:06:12.165Z,13.50
2022-12-16T07:08:59.961Z,13.60
2022-12-16T07:11:51.003Z,14.20
2022-12-16T07:14:38.941Z,16.00
2022-12-16T07:17:27.120Z,14.70
2022-12-16T07:20:15.404Z,16.10
2022-12-16T07:23:11.847Z,16.40
2022-12-16T07:26:12.742Z,16.33
2022-12-16T07:29:00.285Z,16.63
2022-12-16T07:31:48.369Z,16.47
2022-12-16T07:34:41.271Z,15.53
2022-12-16T07:37:32.689Z,15.00
2022-12-16T07:40:21.800Z,15.50
2022-12-16T07:43:10.354Z,16.33
2022-12-16T07:45:57.925Z,17.73
2022-12-16T07:48:46.465Z,17.37
2022-12-16T07:51:34.018Z,16.93
2022-12-16T07:54:22.924Z,16.67
2022-12-16T07:57:10.593Z,17.50
2022-12-16T07:59:58.679Z,17.60
2022-12-16T08:02:46.454Z,17.87
2022-12-16T08:05:34.827Z,18.70
2022-12-16T08:08:23.028Z,16.97
2022-12-16T08:11:10.579Z,16.33
2022-12-16T08:13:58.874Z,16.63
2022-12-16T08:16:46.571Z,15.83
2022-12-16T08:19:34.198Z,17.30
2022-12-16T08:22:21.707Z,18.37
2022-12-16T08:25:09.461Z,18.17
2022-12-16T08:27:56.959Z,15.97
2022-12-16T08:30:44.411Z,15.67
2022-12-16T08:33:32.537Z,16.23
2022-12-16T08:36:20.344Z,16.60
2022-12-16T08:39:08.238Z,18.20
2022-12-16T08:41:56.943Z,18.60
2022-12-16T08:44:44.611Z,16.23
2022-12-16T08:47:32.778Z,16.33
2022-12-16T08:50:20.269Z,18.53
2022-12-16T08:53:07.730Z,16.53
2022-12-16T08:55:55.742Z,16.47
2022-12-16T08:58:43.797Z,16.83
2022-12-16T09:01:31.344Z,15.73
2022-12-16T09:04:19.317Z,16.40
2022-12-16T09:07:07.305Z,16.77
2022-12-16T09:09:56.705Z,16.37
2022-12-16T09:12:46.288Z,17.20
2022-12-16T09:15:34.355Z,18.15
2022-12-16T09:18:22.376Z,17.03
2022-12-16T09:21:11.668Z,17.20
2022-12-16T09:23:59.467Z,18.13
2022-12-16T09:26:48.299Z,18.83
2022-12-16T09:29:39.372Z,19.87
2022-12-16T09:32:29.610Z,18.70
2022-12-16T09:35:17.034Z,18.57
2022-12-16T09:38:06.767Z,19.37
2022-12-16T09:40:56.856Z,19.53
2022-12-16T09:44:02.610Z,20.37
2022-12-16T09:47:08.177Z,20.73
2022-12-16T09:50:09.600Z,21.30
2022-12-16T09:53:03.226Z,20.83
2022-12-16T09:55:56.876Z,20.13
2022-12-16T09:58:48.963Z,20.50
2022-12-16T10:01:39.046Z,19.35
2022-12-16T10:04:26.701Z,19.13
2022-12-16T10:07:18.721Z,18.87
2022-12-16T10:10:19.181Z,18.60
2022-12-16T10:13:16.015Z,18.67
2022-12-16T10:16:11.522Z,18.90
2022-12-16T10:19:09.738Z,20.13
2022-12-16T10:22:06.810Z,19.37
2022-12-16T10:25:03.925Z,19.83
2022-12-16T10:28:10.570Z,19.07
2022-12-16T10:30:58.573Z,18.57
2022-12-16T10:33:48.503Z,19.67
2022-12-16T10:36:40.265Z,19.87
2022-12-16T10:39:41.299Z,21.30
2022-12-16T10:42:42.794Z,20.23
2022-12-16T10:45:39.833Z,21.35
2022-12-16T10:48:28.904Z,21.27
2022-12-16T10:51:19.017Z,21.60
2022-12-16T10:54:09.434Z,21.03
2022-12-16T10:57:11.536Z,21.40
2022-12-16T11:00:02.995Z,20.68
2022-12-16T11:02:50.783Z,22.43
2022-12-16T11:05:52.665Z,22.63
2022-12-16T11:08:46.558Z,22.13
2022-12-16T11:11:44.041Z,22.63
2022-12-16T11:14:50.378Z,21.57
2022-12-16T11:17:49.752Z,22.90
2022-12-16T11:20:40.177Z,24.07
2022-12-16T11:23:41.024Z,24.40
2022-12-16T11:26:37.215Z,24.03
2022-12-16T11:29:29.879Z,25.07
2022-12-16T11:32:27.359Z,25.88
2022-12-16T11:35:18.877Z,25.27
2022-12-16T11:38:20.694Z,25.27
2022-12-16T11:41:09.853Z,24.47
2022-12-16T11:44:02.154Z,23.73
2022-12-16T11:46:50.243Z,23.32
2022-12-16T11:49:44.791Z,24.87
2022-12-16T11:52:37.446Z,24.47
2022-12-16T11:56:05.536Z,24.67
2022-12-16T11:58:57.662Z,25.77
2022-12-16T12:01:51.168Z,25.23
2022-12-16T12:04:39.014Z,25.23
2022-12-16T12:07:47.434Z,25.17
2022-12-16T12:10:57.116Z,25.57
2022-12-16T12:14:02.631Z,26.73
2022-12-16T12:17:01.124Z,28.67
2022-12-16T12:19:58.756Z,26.27
2022-12-16T12:22:54.766Z,26.93
2022-12-16T12:25:53.052Z,27.60
2022-12-16T12:28:54.864Z,27.07
2022-12-16T12:31:57.315Z,27.90
2022-12-16T12:34:53.804Z,27.40
2022-12-16T12:37:47.454Z,27.27
2022-12-16T12:41:05.556Z,28.03
2022-12-16T12:44:04.729Z,28.87
2022-12-16T12:47:00.461Z,29.43
2022-12-16T12:49:56.507Z,29.97
2022-12-16T12:52:59.537Z,31.80
2022-12-16T12:55:57.146Z,33.67
2022-12-16T12:58:47.091Z,30.00
2022-12-16T13:01:37.283Z,33.00
2022-12-16T13:04:34.701Z,29.00
2022-12-16T13:07:24.229Z,30.50
2022-12-16T13:10:46.004Z,31.67
2022-12-16T13:13:52.205Z,31.50
2022-12-16T13:17:25.922Z,31.47
2022-12-16T13:20:16.160Z,28.17
2022-12-16T13:23:06.628Z,28.67
2022-12-16T13:26:03.169Z,27.30
2022-12-16T13:28:53.288Z,27.93
2022-12-16T13:31:42.019Z,28.67
2022-12-16T13:34:45.406Z,28.67
2022-12-16T13:37:42.565Z,31.67
2022-12-16T13:40:53.023Z,28.90
2022-12-16T13:44:02.875Z,30.47
2022-12-16T13:47:01.797Z,31.53
2022-12-16T13:50:05.752Z,31.07
2022-12-16T13:53:05.372Z,32.25
2022-12-16T13:55:58.524Z,31.60
2022-12-16T13:58:57.148Z,32.03
2022-12-16T14:01:55.313Z,30.85
2022-12-16T14:04:46.590Z,32.30
2022-12-16T14:07:37.076Z,32.97
2022-12-16T14:10:41.245Z,34.70
2022-12-16T14:13:39.672Z,34.70
2022-12-16T14:16:34.280Z,32.67
2022-12-16T14:19:32.934Z,32.73
2022-12-16T14:22:33.857Z,31.70
2022-12-16T14:25:31.235Z,30.90
2022-12-16T14:28:25.934Z,30.03
2022-12-16T14:31:24.101Z,27.60
2022-12-16T14:34:14.254Z,26.60
2022-12-16T14:37:01.969Z,24.53
2022-12-16T14:39:52.232Z,25.47
2022-12-16T14:42:44.797Z,26.10
2022-12-16T14:48:49.508Z,30.50
2022-12-16T14:51:45.822Z,30.63
2022-12-16T14:54:43.689Z,30.97
2022-12-16T14:57:35.450Z,30.70
2022-12-16T15:00:33.442Z,29.53
2022-12-16T15:03:29.212Z,32.20
2022-12-16T15:06:19.588Z,33.33
2022-12-16T15:09:28.198Z,34.37
2022-12-16T15:12:16.087Z,34.20
2022-12-16T15:15:09.820Z,38.10
2022-12-16T15:18:07.738Z,37.33
2022-12-16T15:21:08.966Z,36.87
2022-12-16T15:24:02.011Z,35.97
2022-12-16T15:26:53.305Z,33.67
2022-12-16T15:29:51.011Z,33.80
2022-12-16T15:32:54.994Z,33.17
2022-12-16T15:35:58.739Z,31.20
2022-12-16T15:38:50.473Z,31.57
2022-12-16T15:41:43.747Z,32.80
2022-12-16T15:44:36.607Z,33.43
2022-12-16T15:47:24.990Z,31.70
2022-12-16T15:50:14.217Z,33.80
2022-12-16T15:53:03.145Z,36.30
2022-12-16T15:56:05.018Z,35.20
2022-12-16T15:58:55.577Z,40.77
2022-12-16T16:01:45.880Z,38.97
2022-12-16T16:04:41.768Z,38.80
2022-12-16T16:07:33.978Z,39.77
2022-12-16T16:10:35.471Z,41.40
2022-12-16T16:13:25.024Z,38.43
2022-12-16T16:16:14.092Z,38.00
2022-12-16T16:19:02.310Z,37.97
2022-12-16T16:22:01.861Z,38.43
2022-12-16T16:24:50.006Z,38.10
2022-12-16T16:27:38.338Z,39.27
2022-12-16T16:30:42.150Z,38.73
2022-12-16T16:33:30.746Z,38.67
2022-12-16T16:36:18.520Z,36.50
2022-12-16T16:39:06.250Z,36.05
2022-12-16T16:41:54.368Z,36.50
2022-12-16T16:44:42.199Z,38.80
2022-12-16T16:47:35.542Z,36.77
2022-12-16T16:50:24.671Z,37.53
2022-12-16T16:53:12.461Z,35.70
2022-12-16T16:56:03.125Z,37.40
2022-12-16T16:58:53.839Z,38.73
2022-12-16T17:01:41.527Z,38.93
2022-12-16T17:04:29.474Z,36.53
2022-12-16T17:07:17.026Z,38.57
2022-12-16T17:10:05.264Z,36.73
2022-12-16T17:12:52.791Z,37.13
2022-12-16T17:15:43.150Z,35.00
2022-12-16T17:18:31.280Z,36.67
2022-12-16T17:21:20.575Z,36.80
2022-12-16T17:24:12.112Z,38.07
2022-12-16T17:27:05.993Z,36.90
2022-12-16T17:29:57.753Z,37.07
2022-12-16T17:32:47.680Z,40.00
2022-12-16T17:35:38.059Z,39.50
2022-12-16T17:38:33.254Z,37.57
2022-12-16T17:41:24.596Z,40.37
2022-12-16T17:44:20.992Z,42.40
2022-12-16T17:47:13.904Z,48.70
2022-12-16T17:50:06.203Z,50.80
2022-12-16T17:53:03.503Z,47.80
2022-12-16T17:55:56.526Z,46.47
2022-12-16T17:58:53.610Z,44.53
2022-12-16T18:01:44.916Z,44.73
2022-12-16T18:04:36.055Z,46.03
2022-12-16T18:07:26.632Z,45.92
2022-12-16T18:10:16.501Z,46.07
2022-12-16T18:13:06.285Z,44.07
2022-12-16T18:15:54.353Z,45.30
2022-12-16T18:18:46.226Z,46.83
2022-12-16T18:21:36.884Z,45.97
2022-12-16T18:24:27.246Z,47.43
2022-12-16T18:27:14.945Z,42.83
2022-12-16T18:30:04.063Z,41.67
2022-12-16T18:32:52.320Z,41.83
2022-12-16T18:35:40.843Z,39.90
2022-12-16T18:38:32.456Z,41.97
2022-12-16T18:41:24.754Z,39.73
2022-12-16T18:44:14.079Z,38.87
2022-12-16T18:47:03.534Z,38.57
2022-12-16T18:49:51.460Z,39.07
2022-12-16T18:52:40.015Z,37.73
2022-12-16T18:55:28.133Z,38.93
2022-12-16T18:58:42.770Z,37.87
2022-12-16T19:01:29.181Z,36.50
2022-12-16T19:04:17.515Z,35.60
2022-12-16T19:07:05.135Z,40.27
2022-12-16T19:09:53.289Z,42.93
2022-12-16T19:12:40.837Z,43.93
2022-12-16T19:15:29.261Z,41.67
2022-12-16T19:18:16.826Z,42.97
2022-12-16T19:21:11.593Z,43.53
2022-12-16T19:23:59.159Z,43.17
2022-12-16T19:26:47.327Z,42.83
2022-12-16T19:29:34.977Z,46.97
2022-12-16T19:32:35.099Z,45.97
2022-12-16T19:35:23.712Z,45.27
2022-12-16T19:38:12.294Z,55.90
2022-12-16T19:41:08.812Z,55.40
2022-12-16T19:44:03.449Z,63.97
2022-12-16T19:46:55.964Z,63.00
2022-12-16T19:50:01.474Z,47.87
2022-12-16T19:52:52.329Z,41.30
2022-12-16T19:55:44.482Z,41.27
2022-12-16T19:58:36.837Z,37.97
2022-12-16T20:01:28.153Z,41.00
2022-12-16T20:04:16.312Z,40.20
2022-12-16T20:07:03.581Z,43.10
2022-12-16T20:09:54.888Z,47.40
2022-12-16T20:12:47.007Z,45.63
2022-12-16T20:15:35.111Z,41.27
2022-12-16T20:18:24.681Z,42.35
2022-12-16T20:21:13.835Z,42.53
2022-12-16T20:24:01.448Z,40.80
2022-12-16T20:26:49.329Z,44.10
2022-12-16T20:29:37.049Z,47.23
2022-12-16T20:32:24.923Z,47.53
2022-12-16T20:35:13.279Z,41.30
2022-12-16T20:38:15.499Z,39.07
2022-12-16T20:41:12.746Z,40.50
2022-12-16T20:44:00.301Z,41.03
2022-12-16T20:46:48.649Z,41.53
2022-12-16T20:49:39.385Z,38.13
2022-12-16T20:52:26.927Z,37.40
2022-12-16T20:55:14.477Z,34.13
2022-12-16T20:58:02.106Z,35.47
2022-12-16T21:00:50.190Z,37.10
2022-12-16T21:03:38.160Z,35.97
2022-12-16T21:06:27.297Z,36.70
2022-12-16T21:09:15.020Z,36.97
2022-12-16T21:12:02.734Z,35.50
2022-12-16T21:14:50.225Z,37.23
2022-12-16T21:17:40.182Z,36.33
2022-12-16T21:20:28.768Z,39.03
2022-12-16T21:23:24.734Z,38.87
2022-12-16T21:26:12.514Z,37.47
2022-12-16T21:29:00.400Z,37.00
2022-12-16T21:31:47.956Z,37.37
2022-12-16T21:34:35.385Z,40.17
2022-12-16T21:37:23.022Z,40.83
2022-12-16T21:40:10.927Z,38.23
2022-12-16T21:42:58.526Z,40.97
2022-12-16T21:45:46.005Z,41.07
2022-12-16T21:48:33.655Z,40.60
2022-12-16T21:51:22.014Z,40.93
2022-12-16T21:54:11.250Z,40.97
2022-12-16T21:56:58.857Z,39.73
2022-12-16T21:59:46.257Z,40.97
2022-12-16T22:02:34.241Z,41.57
2022-12-16T22:05:26.532Z,41.20
2022-12-16T22:08:15.352Z,40.00
2022-12-16T22:11:08.739Z,39.97
2022-12-16T22:13:57.445Z,38.53
2022-12-16T22:16:44.802Z,35.10
2022-12-16T22:19:32.411Z,36.30
2022-12-16T22:22:23.137Z,35.23
2022-12-16T22:25:14.346Z,37.47
2022-12-16T22:28:02.346Z,37.37
2022-12-16T22:30:51.309Z,43.63
2022-12-16T22:33:39.463Z,39.20
2022-12-16T22:36:31.571Z,36.60
2022-12-16T22:39:18.945Z,36.20
2022-12-16T22:42:06.507Z,36.80
2022-12-16T22:44:56.433Z,37.20
2022-12-16T22:47:44.561Z,39.40
2022-12-16T22:50:32.174Z,38.80
2022-12-16T22:53:19.817Z,37.43
2022-12-16T22:56:12.912Z,38.23
2022-12-16T22:59:00.728Z,40.50
2022-12-16T23:01:48.159Z,40.03
2022-12-16T23:04:35.720Z,38.57
2022-12-16T23:07:23.439Z,36.90
2022-12-16T23:10:10.918Z,38.37
2022-12-16T23:12:58.745Z,36.33
2022-12-16T23:15:46.717Z,36.73
2022-12-16T23:18:34.261Z,36.30
2022-12-16T23:21:21.754Z,38.00
2022-12-16T23:24:12.046Z,35.90
2022-12-16T23:27:02.770Z,36.37
2022-12-16T23:29:50.222Z,35.67
2022-12-16T23:32:38.079Z,38.00
2022-12-16T23:35:26.662Z,35.60
2022-12-16T23:38:20.658Z,35.60
2022-12-16T23:41:29.832Z,36.47
2022-12-16T23:44:17.502Z,36.37
2022-12-16T23:47:06.204Z,37.57
2022-12-16T23:49:53.575Z,35.67
2022-12-16T23:52:44.464Z,34.60
2022-12-16T23:55:32.186Z,34.60
2022-12-16T23:58:21.936Z,37.17
